sensor_id;sensor_type;location;lat;lon;timestamp;pressure;altitude;pressure_sealevel;temperature;humidity
13434;BME280;6789;47.678;9.158;2023-03-01T00:01:42;97295.19;;;1.46;83.50
13434;BME280;6789;47.678;9.158;2023-03-01T00:06:34;97290.50;;;1.50;83.20
13434;BME280;6789;47.678;9.158;2023-03-01T00:11:28;97286.06;;;1.60;83.11
13434;BME280;6789;47.678;9.158;2023-03-01T00:16:27;97290.09;;;1.62;82.61
13434;BME280;6789;47.678;9.158;2023-03-01T00:21:21;97288.81;;;1.66;82.26
13434;BME280;6789;47.678;9.158;2023-03-01T00:26:14;97285.56;;;1.64;82.45
13434;BME280;6789;47.678;9.158;2023-03-01T00:31:14;97277.81;;;1.64;83.04
13434;BME280;6789;47.678;9.158;2023-03-01T00:36:07;97281.09;;;1.74;82.97
13434;BME280;6789;47.678;9.158;2023-03-01T00:41:08;97279.13;;;1.68;82.55
13434;BME280;6789;47.678;9.158;2023-03-01T00:46:11;97272.34;;;1.67;82.62
13434;BME280;6789;47.678;9.158;2023-03-01T00:51:19;97264.28;;;1.70;83.17
13434;BME280;6789;47.678;9.158;2023-03-01T00:56:14;97277.69;;;1.74;83.64
13434;BME280;6789;47.678;9.158;2023-03-01T01:01:16;97265.88;;;1.71;84.36
13434;BME280;6789;47.678;9.158;2023-03-01T01:06:18;97266.56;;;1.73;83.12
13434;BME280;6789;47.678;9.158;2023-03-01T01:11:11;97243.78;;;1.77;83.47
13434;BME280;6789;47.678;9.158;2023-03-01T01:16:03;97238.13;;;1.73;84.21
13434;BME280;6789;47.678;9.158;2023-03-01T01:20:55;97237.16;;;1.74;83.67
13434;BME280;6789;47.678;9.158;2023-03-01T01:25:47;97232.94;;;1.73;83.94
13434;BME280;6789;47.678;9.158;2023-03-01T01:30:39;97223.91;;;1.77;83.64
13434;BME280;6789;47.678;9.158;2023-03-01T01:35:30;97224.41;;;1.81;82.84
13434;BME280;6789;47.678;9.158;2023-03-01T01:40:22;97211.97;;;1.76;83.89
13434;BME280;6789;47.678;9.158;2023-03-01T01:45:34;97208.41;;;1.77;84.01
13434;BME280;6789;47.678;9.158;2023-03-01T01:50:27;97198.75;;;1.87;83.93
13434;BME280;6789;47.678;9.158;2023-03-01T01:55:25;97203.22;;;1.77;83.78
13434;BME280;6789;47.678;9.158;2023-03-01T02:00:26;97202.13;;;1.80;84.06
13434;BME280;6789;47.678;9.158;2023-03-01T02:05:25;97195.00;;;1.82;83.72
13434;BME280;6789;47.678;9.158;2023-03-01T02:10:17;97185.31;;;1.76;84.47
13434;BME280;6789;47.678;9.158;2023-03-01T02:15:10;97178.03;;;1.79;84.58
13434;BME280;6789;47.678;9.158;2023-03-01T02:20:14;97176.88;;;1.74;85.10
13434;BME280;6789;47.678;9.158;2023-03-01T02:30:10;97179.16;;;1.77;85.08
13434;BME280;6789;47.678;9.158;2023-03-01T02:35:04;97170.31;;;1.87;85.02
13434;BME280;6789;47.678;9.158;2023-03-01T02:40:03;97157.84;;;1.83;85.82
13434;BME280;6789;47.678;9.158;2023-03-01T02:44:56;97171.44;;;1.85;85.56
13434;BME280;6789;47.678;9.158;2023-03-01T02:49:48;97162.84;;;1.84;85.02
13434;BME280;6789;47.678;9.158;2023-03-01T02:55:00;97156.72;;;1.85;85.20
13434;BME280;6789;47.678;9.158;2023-03-01T02:59:56;97157.06;;;1.82;85.48
13434;BME280;6789;47.678;9.158;2023-03-01T03:05:11;97136.03;;;1.77;84.94
13434;BME280;6789;47.678;9.158;2023-03-01T03:10:07;97145.41;;;1.78;85.64
13434;BME280;6789;47.678;9.158;2023-03-01T03:14:59;97138.97;;;1.82;86.11
13434;BME280;6789;47.678;9.158;2023-03-01T03:20:06;97149.94;;;1.84;86.22
13434;BME280;6789;47.678;9.158;2023-03-01T03:25:02;97138.97;;;1.82;86.50
13434;BME280;6789;47.678;9.158;2023-03-01T03:29:54;97138.66;;;1.93;86.22
13434;BME280;6789;47.678;9.158;2023-03-01T03:34:46;97123.09;;;1.77;86.84
13434;BME280;6789;47.678;9.158;2023-03-01T03:39:37;97136.38;;;1.74;86.28
13434;BME280;6789;47.678;9.158;2023-03-01T03:44:29;97145.28;;;1.80;86.96
13434;BME280;6789;47.678;9.158;2023-03-01T03:49:21;97144.44;;;1.79;86.94
13434;BME280;6789;47.678;9.158;2023-03-01T03:54:12;97135.09;;;1.70;87.03
13434;BME280;6789;47.678;9.158;2023-03-01T03:59:04;97142.84;;;1.70;86.78
13434;BME280;6789;47.678;9.158;2023-03-01T04:03:57;97131.66;;;1.70;86.77
13434;BME280;6789;47.678;9.158;2023-03-01T04:08:55;97128.44;;;1.68;87.23
13434;BME280;6789;47.678;9.158;2023-03-01T04:13:52;97133.59;;;1.60;88.09
13434;BME280;6789;47.678;9.158;2023-03-01T04:18:45;97125.19;;;1.74;87.34
13434;BME280;6789;47.678;9.158;2023-03-01T04:23:37;97126.19;;;1.65;87.37
13434;BME280;6789;47.678;9.158;2023-03-01T04:28:39;97123.28;;;1.60;88.31
13434;BME280;6789;47.678;9.158;2023-03-01T04:33:37;97113.09;;;1.66;87.52
13434;BME280;6789;47.678;9.158;2023-03-01T04:38:28;97127.47;;;1.61;88.30
13434;BME280;6789;47.678;9.158;2023-03-01T04:43:20;97116.78;;;1.56;88.77
13434;BME280;6789;47.678;9.158;2023-03-01T04:48:12;97116.00;;;1.63;88.25
13434;BME280;6789;47.678;9.158;2023-03-01T04:53:18;97123.75;;;1.63;87.98
13434;BME280;6789;47.678;9.158;2023-03-01T04:58:27;97121.47;;;1.60;87.84
13434;BME280;6789;47.678;9.158;2023-03-01T05:03:33;97110.97;;;1.62;87.87
13434;BME280;6789;47.678;9.158;2023-03-01T05:08:41;97105.97;;;1.52;88.75
13434;BME280;6789;47.678;9.158;2023-03-01T05:13:36;97095.63;;;1.52;89.08
13434;BME280;6789;47.678;9.158;2023-03-01T05:18:42;97098.06;;;1.54;88.71
13434;BME280;6789;47.678;9.158;2023-03-01T05:23:48;97089.34;;;1.55;89.40
13434;BME280;6789;47.678;9.158;2023-03-01T05:28:55;97096.25;;;1.46;89.66
13434;BME280;6789;47.678;9.158;2023-03-01T05:33:53;97099.84;;;1.61;89.66
13434;BME280;6789;47.678;9.158;2023-03-01T05:38:59;97087.88;;;1.52;89.20
13434;BME280;6789;47.678;9.158;2023-03-01T05:44:06;97080.94;;;1.53;89.43
13434;BME280;6789;47.678;9.158;2023-03-01T05:49:13;97065.59;;;1.59;89.34
13434;BME280;6789;47.678;9.158;2023-03-01T05:54:21;97064.66;;;1.68;88.76
13434;BME280;6789;47.678;9.158;2023-03-01T05:59:27;97061.25;;;1.60;88.58
13434;BME280;6789;47.678;9.158;2023-03-01T06:04:33;97063.53;;;1.55;89.05
13434;BME280;6789;47.678;9.158;2023-03-01T06:09:38;97065.94;;;1.56;89.49
13434;BME280;6789;47.678;9.158;2023-03-01T06:14:46;97060.78;;;1.56;89.49
13434;BME280;6789;47.678;9.158;2023-03-01T06:19:53;97069.78;;;1.52;89.65
13434;BME280;6789;47.678;9.158;2023-03-01T06:24:58;97070.28;;;1.56;89.59
13434;BME280;6789;47.678;9.158;2023-03-01T06:30:05;97068.66;;;1.63;89.24
13434;BME280;6789;47.678;9.158;2023-03-01T06:35:14;97068.34;;;1.58;90.06
13434;BME280;6789;47.678;9.158;2023-03-01T06:40:11;97070.63;;;1.53;90.09
13434;BME280;6789;47.678;9.158;2023-03-01T06:45:10;97069.50;;;1.63;90.13
13434;BME280;6789;47.678;9.158;2023-03-01T06:50:17;97065.28;;;1.62;88.93
13434;BME280;6789;47.678;9.158;2023-03-01T06:55:24;97069.16;;;1.58;89.16
13434;BME280;6789;47.678;9.158;2023-03-01T07:00:31;97077.56;;;1.68;89.37
13434;BME280;6789;47.678;9.158;2023-03-01T07:05:37;97070.94;;;1.58;90.54
13434;BME280;6789;47.678;9.158;2023-03-01T07:10:43;97079.50;;;1.66;90.17
13434;BME280;6789;47.678;9.158;2023-03-01T07:15:36;97066.91;;;1.71;89.53
13434;BME280;6789;47.678;9.158;2023-03-01T07:20:42;97065.78;;;1.66;89.28
13434;BME280;6789;47.678;9.158;2023-03-01T07:25:53;97071.75;;;1.74;89.37
13434;BME280;6789;47.678;9.158;2023-03-01T07:31:03;97079.47;;;1.58;90.13
13434;BME280;6789;47.678;9.158;2023-03-01T07:36:10;97072.22;;;1.70;89.97
13434;BME280;6789;47.678;9.158;2023-03-01T07:41:26;97066.59;;;1.74;89.57
13434;BME280;6789;47.678;9.158;2023-03-01T07:46:28;97063.00;;;1.83;89.49
13434;BME280;6789;47.678;9.158;2023-03-01T07:51:44;97064.31;;;1.71;89.19
13434;BME280;6789;47.678;9.158;2023-03-01T07:56:47;97066.56;;;1.66;90.06
13434;BME280;6789;47.678;9.158;2023-03-01T08:01:54;97059.31;;;1.78;88.58
13434;BME280;6789;47.678;9.158;2023-03-01T08:07:00;97059.13;;;1.71;89.19
13434;BME280;6789;47.678;9.158;2023-03-01T08:12:07;97054.78;;;1.72;88.90
13434;BME280;6789;47.678;9.158;2023-03-01T08:17:14;97057.56;;;1.70;88.97
13434;BME280;6789;47.678;9.158;2023-03-01T08:22:20;97048.50;;;1.74;88.74
13434;BME280;6789;47.678;9.158;2023-03-01T08:27:26;97042.81;;;1.87;88.63
13434;BME280;6789;47.678;9.158;2023-03-01T08:32:19;97045.25;;;1.88;88.34
13434;BME280;6789;47.678;9.158;2023-03-01T08:37:25;97047.19;;;1.86;87.59
13434;BME280;6789;47.678;9.158;2023-03-01T08:42:22;97033.78;;;1.91;88.15
13434;BME280;6789;47.678;9.158;2023-03-01T08:47:38;97028.31;;;1.78;88.22
13434;BME280;6789;47.678;9.158;2023-03-01T08:52:46;97041.69;;;1.97;87.18
13434;BME280;6789;47.678;9.158;2023-03-01T08:57:56;97037.16;;;2.07;87.50
13434;BME280;6789;47.678;9.158;2023-03-01T09:03:05;97043.31;;;1.90;87.10
13434;BME280;6789;47.678;9.158;2023-03-01T09:08:12;97041.19;;;1.94;88.08
13434;BME280;6789;47.678;9.158;2023-03-01T09:13:22;97028.75;;;1.97;88.03
13434;BME280;6789;47.678;9.158;2023-03-01T09:18:35;97021.00;;;2.05;87.66
13434;BME280;6789;47.678;9.158;2023-03-01T09:23:46;97022.56;;;2.14;86.91
13434;BME280;6789;47.678;9.158;2023-03-01T09:29:03;97025.38;;;2.05;87.67
13434;BME280;6789;47.678;9.158;2023-03-01T09:34:09;97019.19;;;2.13;87.22
13434;BME280;6789;47.678;9.158;2023-03-01T09:39:15;97016.13;;;2.18;86.21
13434;BME280;6789;47.678;9.158;2023-03-01T09:44:55;97024.22;;;2.07;85.89
13434;BME280;6789;47.678;9.158;2023-03-01T09:50:19;97022.13;;;2.11;85.85
13434;BME280;6789;47.678;9.158;2023-03-01T09:55:53;97014.81;;;2.14;86.19
13434;BME280;6789;47.678;9.158;2023-03-01T10:01:29;97020.19;;;2.05;86.03
13434;BME280;6789;47.678;9.158;2023-03-01T10:12:33;97004.09;;;2.33;84.93
13434;BME280;6789;47.678;9.158;2023-03-01T10:23:01;97002.03;;;2.20;84.82
13434;BME280;6789;47.678;9.158;2023-03-01T10:29:05;96993.81;;;2.17;85.08
13434;BME280;6789;47.678;9.158;2023-03-01T10:39:35;96985.97;;;2.33;84.25
13434;BME280;6789;47.678;9.158;2023-03-01T10:44:47;96990.38;;;2.24;83.91
13434;BME280;6789;47.678;9.158;2023-03-01T10:50:04;96988.44;;;2.34;83.38
13434;BME280;6789;47.678;9.158;2023-03-01T11:00:25;96973.84;;;2.41;83.70
13434;BME280;6789;47.678;9.158;2023-03-01T11:05:32;96975.63;;;2.41;83.46
13434;BME280;6789;47.678;9.158;2023-03-01T11:10:39;96981.47;;;2.35;83.61
13434;BME280;6789;47.678;9.158;2023-03-01T11:16:06;96969.09;;;2.53;82.70
13434;BME280;6789;47.678;9.158;2023-03-01T11:21:18;96968.41;;;2.59;82.57
13434;BME280;6789;47.678;9.158;2023-03-01T11:26:50;96968.00;;;2.47;81.61
13434;BME280;6789;47.678;9.158;2023-03-01T11:32:24;96958.91;;;2.51;81.37
13434;BME280;6789;47.678;9.158;2023-03-01T11:37:55;96964.78;;;2.45;82.83
13434;BME280;6789;47.678;9.158;2023-03-01T11:43:59;96959.41;;;2.16;83.41
13434;BME280;6789;47.678;9.158;2023-03-01T11:49:41;96951.75;;;2.31;81.84
13434;BME280;6789;47.678;9.158;2023-03-01T12:01:52;96957.78;;;2.54;81.17
13434;BME280;6789;47.678;9.158;2023-03-01T12:30:58;96902.50;;;2.47;79.94
13434;BME280;6789;47.678;9.158;2023-03-01T12:53:46;96897.09;;;2.56;80.24
13434;BME280;6789;47.678;9.158;2023-03-01T12:59:24;96896.63;;;2.53;79.91
13434;BME280;6789;47.678;9.158;2023-03-01T13:10:52;96897.56;;;2.60;80.44
13434;BME280;6789;47.678;9.158;2023-03-01T13:15:56;96891.94;;;2.79;79.14
13434;BME280;6789;47.678;9.158;2023-03-01T13:21:04;96890.09;;;2.87;78.96
13434;BME280;6789;47.678;9.158;2023-03-01T13:26:17;96881.81;;;2.69;79.33
13434;BME280;6789;47.678;9.158;2023-03-01T13:46:40;96892.59;;;2.81;79.33
13434;BME280;6789;47.678;9.158;2023-03-01T13:51:48;96894.91;;;2.76;78.41
13434;BME280;6789;47.678;9.158;2023-03-01T13:56:57;96899.66;;;2.86;79.06
13434;BME280;6789;47.678;9.158;2023-03-01T14:02:12;96890.06;;;2.95;79.18
13434;BME280;6789;47.678;9.158;2023-03-01T14:07:22;96908.28;;;3.01;79.17
13434;BME280;6789;47.678;9.158;2023-03-01T14:13:01;96899.91;;;2.99;78.84
13434;BME280;6789;47.678;9.158;2023-03-01T14:18:39;96903.75;;;3.03;78.37
13434;BME280;6789;47.678;9.158;2023-03-01T14:23:53;96888.16;;;3.11;78.92
13434;BME280;6789;47.678;9.158;2023-03-01T14:28:49;96872.25;;;3.14;79.16
13434;BME280;6789;47.678;9.158;2023-03-01T14:34:24;96871.97;;;3.09;78.44
13434;BME280;6789;47.678;9.158;2023-03-01T14:39:32;96868.34;;;3.18;77.92
13434;BME280;6789;47.678;9.158;2023-03-01T14:44:42;96866.16;;;3.07;78.89
13434;BME280;6789;47.678;9.158;2023-03-01T14:50:00;96863.00;;;3.34;78.33
13434;BME280;6789;47.678;9.158;2023-03-01T15:00:30;96867.19;;;3.21;78.33
13434;BME280;6789;47.678;9.158;2023-03-01T15:05:40;96856.84;;;2.98;79.26
13434;BME280;6789;47.678;9.158;2023-03-01T15:10:40;96861.31;;;3.04;78.98
13434;BME280;6789;47.678;9.158;2023-03-01T15:16:33;96854.53;;;3.03;79.41
13434;BME280;6789;47.678;9.158;2023-03-01T15:21:44;96867.06;;;3.14;79.16
13434;BME280;6789;47.678;9.158;2023-03-01T15:26:59;96864.19;;;3.09;78.93
13434;BME280;6789;47.678;9.158;2023-03-01T15:32:32;96868.50;;;3.17;77.93
13434;BME280;6789;47.678;9.158;2023-03-01T15:37:48;96856.38;;;3.17;78.85
13434;BME280;6789;47.678;9.158;2023-03-01T15:42:54;96855.66;;;3.23;77.81
13434;BME280;6789;47.678;9.158;2023-03-01T15:48:17;96857.28;;;3.24;78.12
13434;BME280;6789;47.678;9.158;2023-03-01T15:53:27;96841.63;;;3.18;79.48
13434;BME280;6789;47.678;9.158;2023-03-01T15:58:33;96848.34;;;3.27;78.98
13434;BME280;6789;47.678;9.158;2023-03-01T16:03:39;96841.88;;;3.23;79.15
13434;BME280;6789;47.678;9.158;2023-03-01T16:08:45;96842.00;;;3.29;78.91
13434;BME280;6789;47.678;9.158;2023-03-01T16:13:51;96843.22;;;3.19;78.78
13434;BME280;6789;47.678;9.158;2023-03-01T16:18:57;96848.31;;;3.12;79.63
13434;BME280;6789;47.678;9.158;2023-03-01T16:24:03;96839.00;;;3.03;79.85
13434;BME280;6789;47.678;9.158;2023-03-01T16:29:09;96850.00;;;3.05;80.81
13434;BME280;6789;47.678;9.158;2023-03-01T16:34:15;96849.53;;;3.02;81.02
13434;BME280;6789;47.678;9.158;2023-03-01T16:39:21;96858.78;;;2.96;80.84
13434;BME280;6789;47.678;9.158;2023-03-01T16:44:14;96848.63;;;2.95;80.80
13434;BME280;6789;47.678;9.158;2023-03-01T16:49:11;96860.78;;;2.94;81.91
13434;BME280;6789;47.678;9.158;2023-03-01T16:54:17;96863.75;;;2.83;81.95
13434;BME280;6789;47.678;9.158;2023-03-01T16:59:23;96868.59;;;2.86;82.05
13434;BME280;6789;47.678;9.158;2023-03-01T17:04:29;96877.16;;;2.87;82.53
13434;BME280;6789;47.678;9.158;2023-03-01T17:09:36;96882.97;;;2.89;82.23
13434;BME280;6789;47.678;9.158;2023-03-01T17:14:42;96887.47;;;2.95;82.53
13434;BME280;6789;47.678;9.158;2023-03-01T17:19:48;96887.94;;;2.98;82.08
13434;BME280;6789;47.678;9.158;2023-03-01T17:24:54;96889.34;;;3.01;82.21
13434;BME280;6789;47.678;9.158;2023-03-01T17:29:47;96879.97;;;3.00;82.24
13434;BME280;6789;47.678;9.158;2023-03-01T17:34:52;96884.00;;;3.02;82.64
13434;BME280;6789;47.678;9.158;2023-03-01T17:39:45;96889.19;;;3.02;81.73
13434;BME280;6789;47.678;9.158;2023-03-01T17:44:51;96889.19;;;3.02;81.87
13434;BME280;6789;47.678;9.158;2023-03-01T17:49:56;96893.84;;;3.07;82.01
13434;BME280;6789;47.678;9.158;2023-03-01T17:55:03;96897.69;;;3.11;81.98
13434;BME280;6789;47.678;9.158;2023-03-01T18:00:13;96887.31;;;3.11;81.21
13434;BME280;6789;47.678;9.158;2023-03-01T18:05:19;96892.63;;;3.17;81.47
13434;BME280;6789;47.678;9.158;2023-03-01T18:10:25;96885.84;;;3.16;81.36
13434;BME280;6789;47.678;9.158;2023-03-01T18:15:26;96890.03;;;3.17;82.06
13434;BME280;6789;47.678;9.158;2023-03-01T18:20:33;96888.41;;;3.16;81.59
13434;BME280;6789;47.678;9.158;2023-03-01T18:25:39;96889.56;;;3.14;82.24
13434;BME280;6789;47.678;9.158;2023-03-01T18:30:45;96899.75;;;3.15;81.95
13434;BME280;6789;47.678;9.158;2023-03-01T18:35:51;96891.56;;;3.26;81.50
13434;BME280;6789;47.678;9.158;2023-03-01T18:40:45;96879.78;;;3.24;81.55
13434;BME280;6789;47.678;9.158;2023-03-01T18:45:59;96886.16;;;3.13;81.80
13434;BME280;6789;47.678;9.158;2023-03-01T18:51:15;96871.84;;;3.25;81.89
13434;BME280;6789;47.678;9.158;2023-03-01T18:56:09;96873.06;;;3.15;81.79
13434;BME280;6789;47.678;9.158;2023-03-01T19:01:34;96862.09;;;3.27;81.92
13434;BME280;6789;47.678;9.158;2023-03-01T19:06:40;96852.09;;;3.24;82.21
13434;BME280;6789;47.678;9.158;2023-03-01T19:11:51;96855.22;;;3.34;82.19
13434;BME280;6789;47.678;9.158;2023-03-01T19:16:46;96846.22;;;3.30;81.89
13434;BME280;6789;47.678;9.158;2023-03-01T19:21:41;96840.38;;;3.28;82.52
13434;BME280;6789;47.678;9.158;2023-03-01T19:26:47;96833.84;;;3.32;81.93
13434;BME280;6789;47.678;9.158;2023-03-01T19:31:41;96827.81;;;3.40;81.34
13434;BME280;6789;47.678;9.158;2023-03-01T19:36:33;96829.31;;;3.34;82.13
13434;BME280;6789;47.678;9.158;2023-03-01T19:41:27;96824.66;;;3.30;82.07
13434;BME280;6789;47.678;9.158;2023-03-01T19:46:33;96816.53;;;3.33;82.07
13434;BME280;6789;47.678;9.158;2023-03-01T19:51:39;96813.50;;;3.29;82.29
13434;BME280;6789;47.678;9.158;2023-03-01T19:56:46;96805.19;;;3.48;81.75
13434;BME280;6789;47.678;9.158;2023-03-01T20:01:39;96805.72;;;3.58;81.38
13434;BME280;6789;47.678;9.158;2023-03-01T20:06:36;96800.72;;;3.42;81.47
13434;BME280;6789;47.678;9.158;2023-03-01T20:11:29;96800.28;;;3.39;82.23
13434;BME280;6789;47.678;9.158;2023-03-01T20:16:38;96785.09;;;3.50;81.68
13434;BME280;6789;47.678;9.158;2023-03-01T20:21:34;96785.53;;;3.39;82.48
13434;BME280;6789;47.678;9.158;2023-03-01T20:26:31;96782.22;;;3.45;82.74
13434;BME280;6789;47.678;9.158;2023-03-01T20:31:26;96787.84;;;3.49;82.34
13434;BME280;6789;47.678;9.158;2023-03-01T20:36:21;96777.59;;;3.55;82.41
13434;BME280;6789;47.678;9.158;2023-03-01T20:41:26;96775.59;;;3.57;81.54
13434;BME280;6789;47.678;9.158;2023-03-01T20:46:22;96771.25;;;3.57;82.05
13434;BME280;6789;47.678;9.158;2023-03-01T20:51:16;96774.09;;;3.62;81.58
13434;BME280;6789;47.678;9.158;2023-03-01T20:56:13;96771.31;;;3.64;80.95
13434;BME280;6789;47.678;9.158;2023-03-01T21:01:18;96763.38;;;3.65;81.41
13434;BME280;6789;47.678;9.158;2023-03-01T21:06:12;96763.19;;;3.67;82.00
13434;BME280;6789;47.678;9.158;2023-03-01T21:11:18;96753.44;;;3.69;81.96
13434;BME280;6789;47.678;9.158;2023-03-01T21:16:12;96764.16;;;3.66;81.17
13434;BME280;6789;47.678;9.158;2023-03-01T21:21:21;96754.53;;;3.60;81.60
13434;BME280;6789;47.678;9.158;2023-03-01T21:26:21;96746.56;;;3.61;81.53
13434;BME280;6789;47.678;9.158;2023-03-01T21:31:24;96752.47;;;3.55;81.85
13434;BME280;6789;47.678;9.158;2023-03-01T21:36:20;96748.09;;;3.56;82.60
13434;BME280;6789;47.678;9.158;2023-03-01T21:46:14;96736.81;;;3.63;82.67
13434;BME280;6789;47.678;9.158;2023-03-01T21:51:09;96725.47;;;3.64;82.15
13434;BME280;6789;47.678;9.158;2023-03-01T21:56:05;96723.38;;;3.74;81.69
13434;BME280;6789;47.678;9.158;2023-03-01T22:01:11;96721.97;;;3.72;82.04
13434;BME280;6789;47.678;9.158;2023-03-01T22:06:04;96707.06;;;3.59;82.18
13434;BME280;6789;47.678;9.158;2023-03-01T22:11:01;96710.81;;;3.57;82.82
13434;BME280;6789;47.678;9.158;2023-03-01T22:15:53;96709.38;;;3.54;83.00
13434;BME280;6789;47.678;9.158;2023-03-01T22:20:46;96703.03;;;3.57;83.20
13434;BME280;6789;47.678;9.158;2023-03-01T22:25:42;96702.38;;;3.69;81.47
13434;BME280;6789;47.678;9.158;2023-03-01T22:30:33;96699.84;;;3.55;81.51
13434;BME280;6789;47.678;9.158;2023-03-01T22:35:26;96696.16;;;3.50;82.38
13434;BME280;6789;47.678;9.158;2023-03-01T22:40:18;96690.19;;;3.49;82.62
13434;BME280;6789;47.678;9.158;2023-03-01T22:45:11;96685.25;;;3.54;82.17
13434;BME280;6789;47.678;9.158;2023-03-01T22:50:06;96686.78;;;3.49;83.20
13434;BME280;6789;47.678;9.158;2023-03-01T22:54:59;96691.44;;;3.53;83.57
13434;BME280;6789;47.678;9.158;2023-03-01T23:00:00;96694.91;;;3.60;83.18
13434;BME280;6789;47.678;9.158;2023-03-01T23:04:53;96694.72;;;3.61;83.52
13434;BME280;6789;47.678;9.158;2023-03-01T23:09:45;96695.88;;;3.59;84.40
13434;BME280;6789;47.678;9.158;2023-03-01T23:14:41;96686.50;;;3.58;85.49
13434;BME280;6789;47.678;9.158;2023-03-01T23:19:37;96688.03;;;3.53;84.85
13434;BME280;6789;47.678;9.158;2023-03-01T23:24:29;96683.31;;;3.56;84.28
13434;BME280;6789;47.678;9.158;2023-03-01T23:29:24;96679.63;;;3.51;84.34
13434;BME280;6789;47.678;9.158;2023-03-01T23:34:18;96668.28;;;3.52;84.55
13434;BME280;6789;47.678;9.158;2023-03-01T23:39:13;96676.13;;;3.58;83.46
13434;BME280;6789;47.678;9.158;2023-03-01T23:44:07;96673.91;;;3.55;84.17
13434;BME280;6789;47.678;9.158;2023-03-01T23:49:00;96669.06;;;3.52;83.77
13434;BME280;6789;47.678;9.158;2023-03-01T23:54:00;96677.94;;;3.57;84.06
13434;BME280;6789;47.678;9.158;2023-03-01T23:58:59;96667.13;;;3.54;84.48
